createdAt,value
2022-09-30T00:02:40.713Z,98133.67
2022-09-30T00:06:01.306Z,98133.59
2022-09-30T00:09:17.067Z,98134.85
2022-09-30T00:12:34.951Z,98137.95
2022-09-30T00:15:50.369Z,98131.86
2022-09-30T00:19:04.116Z,98127.59
2022-09-30T00:22:15.246Z,98122.80
2022-09-30T00:25:22.052Z,98125.33
2022-09-30T00:28:29.233Z,98131.23
2022-09-30T00:31:36.857Z,98127.48
2022-09-30T00:34:43.489Z,98122.56
2022-09-30T00:37:50.253Z,98122.92
2022-09-30T00:40:57.998Z,98121.80
2022-09-30T00:44:18.329Z,98116.13
2022-09-30T00:47:40.252Z,98124.92
2022-09-30T00:50:49.831Z,98129.19
2022-09-30T00:54:01.554Z,98135.66
2022-09-30T00:57:10.639Z,98132.38
2022-09-30T01:00:17.225Z,98133.89
2022-09-30T01:03:25.693Z,98131.18
2022-09-30T01:06:32.595Z,98141.23
2022-09-30T01:09:42.226Z,98150.66
2022-09-30T01:12:48.783Z,98146.34
2022-09-30T01:16:08.198Z,98138.89
2022-09-30T01:19:36.248Z,98130.58
2022-09-30T01:22:50.758Z,98126.61
2022-09-30T01:26:40.047Z,98128.52
2022-09-30T01:30:10.869Z,98130.27
2022-09-30T01:33:34.605Z,98127.42
2022-09-30T01:36:56.110Z,98137.34
2022-09-30T01:40:09.488Z,98145.88
2022-09-30T01:43:26.669Z,98147.09
2022-09-30T01:46:37.872Z,98143.42
2022-09-30T01:49:49.135Z,98149.38
2022-09-30T01:53:05.612Z,98149.70
2022-09-30T01:56:19.241Z,98150.54
2022-09-30T01:59:32.053Z,98148.79
2022-09-30T02:02:43.748Z,98145.79
2022-09-30T02:05:57.960Z,98138.80
2022-09-30T02:09:08.523Z,98129.13
2022-09-30T02:12:21.085Z,98119.52
2022-09-30T02:15:38.468Z,98116.05
2022-09-30T02:18:50.496Z,98105.71
2022-09-30T02:22:01.857Z,98103.83
2022-09-30T02:25:11.848Z,98104.19
2022-09-30T02:28:27.299Z,98101.16
2022-09-30T02:31:37.453Z,98110.15
2022-09-30T02:34:46.979Z,98125.51
2022-09-30T02:37:57.869Z,98131.41
2022-09-30T02:41:10.749Z,98137.96
2022-09-30T02:44:19.061Z,98142.27
2022-09-30T02:47:32.761Z,98140.77
2022-09-30T02:50:46.761Z,98146.13
2022-09-30T02:54:02.364Z,98145.41
2022-09-30T02:57:19.652Z,98137.41
2022-09-30T03:00:26.474Z,98132.11
2022-09-30T03:03:39.378Z,98129.02
2022-09-30T03:06:46.367Z,98127.06
2022-09-30T03:09:57.103Z,98129.88
2022-09-30T03:13:22.995Z,98127.30
2022-09-30T03:16:46.778Z,98131.82
2022-09-30T03:20:06.863Z,98130.65
2022-09-30T03:23:35.448Z,98138.56
2022-09-30T03:26:50.351Z,98141.20
2022-09-30T03:30:03.449Z,98142.59
2022-09-30T03:33:17.512Z,98144.43
2022-09-30T03:36:32.372Z,98151.27
2022-09-30T03:39:50.424Z,98158.23
2022-09-30T03:43:07.298Z,98152.69
2022-09-30T03:46:23.030Z,98151.86
2022-09-30T03:49:33.967Z,98152.82
2022-09-30T03:52:41.005Z,98158.90
2022-09-30T03:55:53.221Z,98162.14
2022-09-30T03:58:59.870Z,98159.20
2022-09-30T04:02:07.234Z,98161.50
2022-09-30T04:05:14.149Z,98160.12
2022-09-30T04:08:20.887Z,98166.38
2022-09-30T04:11:27.752Z,98164.86
2022-09-30T04:14:34.605Z,98163.06
2022-09-30T04:17:41.077Z,98167.00
2022-09-30T04:20:47.503Z,98163.08
2022-09-30T04:23:54.165Z,98158.93
2022-09-30T04:27:00.748Z,98158.59
2022-09-30T04:30:08.356Z,98161.16
2022-09-30T04:33:14.844Z,98166.77
2022-09-30T04:36:21.533Z,98165.51
2022-09-30T04:39:27.770Z,98171.29
2022-09-30T04:42:33.098Z,98170.84
2022-09-30T04:45:39.423Z,98172.18
2022-09-30T04:48:46.644Z,98176.23
2022-09-30T04:51:52.856Z,98180.17
2022-09-30T04:54:58.907Z,98184.77
2022-09-30T04:58:05.191Z,98180.36
2022-09-30T05:01:13.660Z,98183.97
2022-09-30T05:04:20.106Z,98187.94
2022-09-30T05:07:26.931Z,98186.10
2022-09-30T05:10:33.740Z,98185.60
2022-09-30T05:13:41.671Z,98182.02
2022-09-30T05:16:47.899Z,98184.52
2022-09-30T05:19:52.545Z,98183.55
2022-09-30T05:22:59.454Z,98187.08
2022-09-30T05:26:11.120Z,98189.06
2022-09-30T05:29:19.594Z,98195.36
2022-09-30T05:32:26.030Z,98197.44
2022-09-30T05:35:32.327Z,98206.04
2022-09-30T05:38:38.999Z,98206.31
2022-09-30T05:41:45.255Z,98205.73
2022-09-30T05:44:49.860Z,98204.58
2022-09-30T05:47:56.858Z,98208.98
2022-09-30T05:51:03.623Z,98213.22
2022-09-30T05:54:10.904Z,98216.52
2022-09-30T05:57:17.403Z,98213.04
2022-09-30T06:00:23.778Z,98210.14
2022-09-30T06:03:30.042Z,98207.72
2022-09-30T06:06:35.944Z,98213.16
2022-09-30T06:09:42.791Z,98221.02
2022-09-30T06:12:49.093Z,98223.27
2022-09-30T06:16:03.388Z,98226.02
2022-09-30T06:19:09.862Z,98230.55
2022-09-30T06:22:16.324Z,98228.71
2022-09-30T06:25:22.543Z,98219.88
2022-09-30T06:28:27.487Z,98219.02
2022-09-30T06:31:33.922Z,98224.56
2022-09-30T06:34:40.197Z,98222.45
2022-09-30T06:37:46.072Z,98225.96
2022-09-30T06:40:52.510Z,98229.59
2022-09-30T06:43:58.586Z,98227.95
2022-09-30T06:47:05.531Z,98229.48
2022-09-30T06:50:23.470Z,98228.80
2022-09-30T06:53:31.235Z,98227.00
2022-09-30T06:56:37.454Z,98224.75
2022-09-30T06:59:41.863Z,98227.20
2022-09-30T07:02:48.921Z,98228.30
2022-09-30T07:06:00.269Z,98227.90
2022-09-30T07:09:06.693Z,98231.00
2022-09-30T07:12:12.919Z,98223.21
2022-09-30T07:15:17.649Z,98215.46
2022-09-30T07:18:24.167Z,98218.11
2022-09-30T07:21:31.620Z,98224.60
2022-09-30T07:24:37.742Z,98233.16
2022-09-30T07:27:42.313Z,98232.66
2022-09-30T07:30:48.426Z,98241.17
2022-09-30T07:33:53.353Z,98250.78
2022-09-30T07:36:59.438Z,98255.44
2022-09-30T07:40:08.638Z,98255.19
2022-09-30T07:43:19.248Z,98254.69
2022-09-30T07:46:27.213Z,98254.27
2022-09-30T07:49:33.826Z,98257.37
2022-09-30T07:52:39.917Z,98263.45
2022-09-30T07:55:46.043Z,98268.27
2022-09-30T07:58:54.550Z,98264.54
2022-09-30T08:02:00.725Z,98264.41
2022-09-30T08:05:07.761Z,98262.92
2022-09-30T08:08:14.339Z,98259.97
2022-09-30T08:11:20.744Z,98258.71
2022-09-30T08:14:29.078Z,98255.36
2022-09-30T08:17:35.202Z,98251.59
2022-09-30T08:20:39.654Z,98254.34
2022-09-30T08:23:45.780Z,98253.28
2022-09-30T08:26:50.340Z,98256.73
2022-09-30T08:29:58.378Z,98260.48
2022-09-30T08:33:06.460Z,98262.15
2022-09-30T08:36:15.508Z,98261.30
2022-09-30T08:39:21.649Z,98263.98
2022-09-30T08:42:41.600Z,98262.66
2022-09-30T08:45:59.652Z,98267.90
2022-09-30T08:49:17.267Z,98264.42
2022-09-30T08:52:37.347Z,98260.88
2022-09-30T08:55:50.828Z,98263.93
2022-09-30T08:58:59.034Z,98262.23
2022-09-30T09:02:17.485Z,98262.20
2022-09-30T09:05:37.559Z,98258.23
2022-09-30T09:08:57.680Z,98261.46
2022-09-30T09:12:14.365Z,98259.45
2022-09-30T09:15:42.199Z,98256.52
2022-09-30T09:18:59.694Z,98260.00
2022-09-30T09:22:05.886Z,98252.98
2022-09-30T09:25:14.442Z,98254.16
2022-09-30T09:28:29.383Z,98255.44
2022-09-30T09:31:35.615Z,98261.52
2022-09-30T09:34:41.368Z,98264.92
2022-09-30T09:38:10.531Z,98269.84
2022-09-30T09:41:33.529Z,98278.13
2022-09-30T09:44:48.430Z,98277.86
2022-09-30T09:48:00.211Z,98281.55
2022-09-30T09:51:14.582Z,98284.83
2022-09-30T09:54:28.262Z,98290.98
2022-09-30T09:57:34.426Z,98296.95
2022-09-30T10:00:56.260Z,98305.40
2022-09-30T10:04:17.865Z,98308.04
2022-09-30T10:07:23.983Z,98314.62
2022-09-30T10:10:30.131Z,98318.48
2022-09-30T10:13:45.455Z,98314.52
2022-09-30T10:16:51.763Z,98317.45
2022-09-30T10:20:04.442Z,98320.19
2022-09-30T10:23:20.641Z,98318.30
2022-09-30T10:26:28.808Z,98321.89
2022-09-30T10:29:36.716Z,98319.41
2022-09-30T10:32:42.814Z,98317.61
2022-09-30T10:35:55.991Z,98317.29
2022-09-30T10:39:07.405Z,98316.77
2022-09-30T10:42:25.988Z,98319.04
2022-09-30T10:45:37.407Z,98323.36
2022-09-30T10:48:50.210Z,98326.98
2022-09-30T10:51:57.194Z,98328.31
2022-09-30T10:55:13.284Z,98330.00
2022-09-30T10:58:31.018Z,98332.69
2022-09-30T11:01:42.051Z,98332.79
2022-09-30T11:04:54.314Z,98330.91
2022-09-30T11:11:56.554Z,98330.42
2022-09-30T11:15:09.484Z,98329.33
2022-09-30T11:18:23.037Z,98326.25
2022-09-30T11:21:35.437Z,98324.41
2022-09-30T11:24:45.367Z,98326.17
2022-09-30T11:28:10.153Z,98325.40
2022-09-30T11:31:26.333Z,98328.65
2022-09-30T11:34:44.777Z,98328.48
2022-09-30T11:38:10.427Z,98331.70
2022-09-30T11:41:19.637Z,98331.41
2022-09-30T11:44:34.045Z,98335.67
2022-09-30T11:47:56.512Z,98337.29
2022-09-30T11:51:11.680Z,98338.73
2022-09-30T11:54:32.907Z,98340.73
2022-09-30T11:57:45.157Z,98344.02
2022-09-30T12:00:58.423Z,98344.92
2022-09-30T12:04:11.023Z,98355.05
2022-09-30T12:07:20.177Z,98354.05
2022-09-30T12:10:29.257Z,98355.83
2022-09-30T12:13:39.368Z,98363.19
2022-09-30T12:16:47.308Z,98364.55
2022-09-30T12:19:57.658Z,98364.02
2022-09-30T12:23:14.587Z,98363.46
2022-09-30T12:26:21.115Z,98363.15
2022-09-30T12:29:48.970Z,98366.52
2022-09-30T12:33:19.939Z,98366.16
2022-09-30T12:36:52.598Z,98371.95
2022-09-30T12:40:20.184Z,98376.44
2022-09-30T12:43:59.491Z,98377.05
2022-09-30T12:47:20.994Z,98377.95
2022-09-30T12:50:31.270Z,98380.30
2022-09-30T12:53:39.114Z,98387.91
2022-09-30T12:56:47.327Z,98391.91
2022-09-30T12:59:56.550Z,98396.40
2022-09-30T13:03:08.339Z,98402.42
2022-09-30T13:06:15.486Z,98404.77
2022-09-30T13:09:31.278Z,98409.78
2022-09-30T13:12:47.859Z,98414.86
2022-09-30T13:15:56.343Z,98420.77
2022-09-30T13:19:05.530Z,98424.64
2022-09-30T13:22:54.367Z,98429.02
2022-09-30T13:26:02.108Z,98432.41
2022-09-30T13:29:38.551Z,98435.40
2022-09-30T13:32:48.009Z,98438.90
2022-09-30T13:35:58.647Z,98439.41
2022-09-30T13:39:21.053Z,98444.31
2022-09-30T13:42:31.575Z,98442.40
2022-09-30T13:45:39.966Z,98443.32
2022-09-30T13:48:56.229Z,98438.55
2022-09-30T13:52:03.888Z,98443.89
2022-09-30T13:55:18.976Z,98442.82
2022-09-30T13:58:46.238Z,98440.96
2022-09-30T14:02:08.666Z,98445.79
2022-09-30T14:05:36.227Z,98456.52
2022-09-30T14:09:07.819Z,98460.10
2022-09-30T14:12:44.318Z,98459.73
2022-09-30T14:16:34.914Z,98456.77
2022-09-30T14:20:09.402Z,98457.19
2022-09-30T14:23:20.345Z,98456.73
2022-09-30T14:26:45.053Z,98460.35
2022-09-30T14:30:00.317Z,98465.55
2022-09-30T14:33:13.412Z,98473.16
2022-09-30T14:36:21.962Z,98473.88
2022-09-30T14:39:31.842Z,98477.17
2022-09-30T14:42:42.585Z,98482.96
2022-09-30T14:45:53.139Z,98485.44
2022-09-30T14:49:04.690Z,98492.00
2022-09-30T14:52:38.103Z,98490.13
2022-09-30T14:55:44.282Z,98494.28
2022-09-30T14:58:52.480Z,98497.74
2022-09-30T15:02:02.978Z,98503.70
2022-09-30T15:05:14.192Z,98505.48
2022-09-30T15:08:22.865Z,98506.70
2022-09-30T15:24:55.218Z,98502.23
2022-09-30T15:28:01.317Z,98510.20
2022-09-30T15:31:08.312Z,98512.94
2022-09-30T15:34:23.251Z,98523.04
2022-09-30T15:37:33.917Z,98529.41
2022-09-30T15:40:49.238Z,98532.34
2022-09-30T15:43:55.886Z,98539.51
2022-09-30T15:47:07.254Z,98539.80
2022-09-30T15:50:41.442Z,98545.14
2022-09-30T15:53:51.558Z,98551.79
2022-09-30T15:56:57.767Z,98557.06
2022-09-30T16:00:07.970Z,98558.83
2022-09-30T16:03:31.228Z,98561.52
2022-09-30T16:06:45.165Z,98559.05
2022-09-30T16:09:51.166Z,98558.64
2022-09-30T16:12:57.095Z,98554.09
2022-09-30T16:16:03.364Z,98555.66
2022-09-30T16:19:17.179Z,98559.55
2022-09-30T16:22:52.161Z,98555.29
2022-09-30T16:26:19.503Z,98556.81
2022-09-30T16:29:26.276Z,98570.56
2022-09-30T16:32:36.718Z,98586.91
2022-09-30T16:35:44.754Z,98596.13
2022-09-30T16:38:50.667Z,98602.70
2022-09-30T16:41:56.495Z,98609.11
2022-09-30T16:45:02.356Z,98609.70
2022-09-30T16:48:15.568Z,98610.36
2022-09-30T16:51:21.431Z,98611.29
2022-09-30T16:54:27.507Z,98611.20
2022-09-30T16:57:33.365Z,98614.27
2022-09-30T17:00:39.755Z,98618.48
2022-09-30T17:03:46.571Z,98611.48
2022-09-30T17:06:52.441Z,98605.40
2022-09-30T17:09:58.270Z,98606.16
2022-09-30T17:13:05.547Z,98605.45
2022-09-30T17:16:11.617Z,98609.09
2022-09-30T17:19:16.113Z,98606.61
2022-09-30T17:22:21.975Z,98610.73
2022-09-30T17:25:28.191Z,98613.65
2022-09-30T17:28:34.901Z,98604.70
2022-09-30T17:31:40.796Z,98604.77
2022-09-30T17:34:46.702Z,98608.97
2022-09-30T17:37:52.569Z,98616.07
2022-09-30T17:41:16.292Z,98625.76
2022-09-30T17:44:22.166Z,98634.99
2022-09-30T17:47:28.338Z,98638.39
2022-09-30T17:50:32.589Z,98642.38
2022-09-30T17:53:38.497Z,98643.98
2022-09-30T17:56:44.742Z,98645.91
2022-09-30T17:59:51.538Z,98648.95
2022-09-30T18:02:57.590Z,98659.32
2022-09-30T18:06:03.952Z,98662.73
2022-09-30T18:09:11.349Z,98662.69
2022-09-30T18:12:19.275Z,98671.67
2022-09-30T18:15:27.176Z,98677.98
2022-09-30T18:18:34.775Z,98676.97
2022-09-30T18:21:40.806Z,98672.81
2022-09-30T18:25:09.262Z,98679.56
2022-09-30T18:28:15.419Z,98682.91
2022-09-30T18:31:28.489Z,98686.87
2022-09-30T18:34:34.768Z,98687.84
2022-09-30T18:37:39.606Z,98685.90
2022-09-30T18:40:45.929Z,98680.23
2022-09-30T18:43:59.668Z,98680.99
2022-09-30T18:47:05.585Z,98687.06
2022-09-30T18:50:13.688Z,98695.63
2022-09-30T18:53:20.729Z,98695.01
2022-09-30T18:56:32.179Z,98697.43
2022-09-30T18:59:38.407Z,98693.62
2022-09-30T19:02:45.182Z,98691.60
2022-09-30T19:05:51.035Z,98688.70
2022-09-30T19:08:56.971Z,98690.97
2022-09-30T19:12:03.221Z,98687.73
2022-09-30T19:15:11.889Z,98684.67
2022-09-30T19:18:18.124Z,98687.95
2022-09-30T19:21:24.395Z,98689.42
2022-09-30T19:24:30.306Z,98688.28
2022-09-30T19:27:37.823Z,98689.97
2022-09-30T19:30:43.683Z,98688.66
2022-09-30T19:33:56.454Z,98690.05
2022-09-30T19:37:02.858Z,98692.14
2022-09-30T19:40:20.502Z,98699.08
2022-09-30T19:43:29.317Z,98706.73
2022-09-30T19:46:35.772Z,98701.30
2022-09-30T19:49:41.735Z,98691.46
2022-09-30T19:52:55.826Z,98690.73
2022-09-30T19:56:05.918Z,98685.70
2022-09-30T19:59:11.919Z,98684.17
2022-09-30T20:02:20.081Z,98691.41
2022-09-30T20:05:26.471Z,98687.71
2022-09-30T20:08:33.755Z,98690.35
2022-09-30T20:11:40.893Z,98693.02
2022-09-30T20:15:04.374Z,98698.25
2022-09-30T20:18:10.226Z,98698.01
2022-09-30T20:21:17.834Z,98701.33
2022-09-30T20:24:25.129Z,98706.03
2022-09-30T20:27:33.074Z,98702.24
2022-09-30T20:30:45.709Z,98706.15
2022-09-30T20:33:55.010Z,98711.65
2022-09-30T20:37:00.848Z,98716.78
2022-09-30T20:40:09.291Z,98716.70
2022-09-30T20:43:15.205Z,98717.41
2022-09-30T20:46:21.432Z,98711.95
2022-09-30T20:49:25.654Z,98712.54
2022-09-30T20:52:31.495Z,98713.13
2022-09-30T20:55:40.045Z,98711.15
2022-09-30T20:58:46.770Z,98713.50
2022-09-30T21:01:52.659Z,98713.84
2022-09-30T21:04:59.765Z,98712.91
2022-09-30T21:08:07.438Z,98712.25
2022-09-30T21:11:13.650Z,98714.38
2022-09-30T21:14:19.519Z,98714.85
2022-09-30T21:17:25.419Z,98714.52
2022-09-30T21:20:31.338Z,98716.95
2022-09-30T21:23:38.087Z,98719.01
2022-09-30T21:26:43.991Z,98717.31
2022-09-30T21:29:50.991Z,98715.46
2022-09-30T21:32:56.938Z,98722.60
2022-09-30T21:36:04.755Z,98718.34
2022-09-30T21:39:12.654Z,98717.04
2022-09-30T21:42:19.183Z,98717.34
2022-09-30T21:45:25.609Z,98717.82
2022-09-30T21:48:33.340Z,98718.33
2022-09-30T21:51:39.174Z,98713.36
2022-09-30T21:54:45.049Z,98715.42
2022-09-30T21:57:50.887Z,98715.38
2022-09-30T22:01:00.708Z,98715.00
2022-09-30T22:04:07.419Z,98722.81
2022-09-30T22:07:15.567Z,98722.86
2022-09-30T22:10:21.494Z,98723.86
2022-09-30T22:13:27.349Z,98726.56
2022-09-30T22:16:35.983Z,98718.73
2022-09-30T22:19:41.903Z,98719.33
2022-09-30T22:22:49.049Z,98719.67
2022-09-30T22:25:56.913Z,98720.55
2022-09-30T22:29:04.425Z,98716.33
2022-09-30T22:32:10.384Z,98716.88
2022-09-30T22:35:33.983Z,98721.45
2022-09-30T22:38:39.827Z,98720.75
2022-09-30T22:41:45.705Z,98717.46
2022-09-30T22:44:52.122Z,98729.55
2022-09-30T22:47:58.686Z,98720.83
2022-09-30T22:51:05.194Z,98717.78
2022-09-30T22:54:12.373Z,98718.65
2022-09-30T22:57:18.242Z,98723.31
2022-09-30T23:00:24.115Z,98720.66
2022-09-30T23:03:30.076Z,98725.70
2022-09-30T23:06:36.603Z,98726.29
2022-09-30T23:09:42.448Z,98730.40
2022-09-30T23:12:51.495Z,98734.34
2022-09-30T23:16:02.545Z,98730.21
2022-09-30T23:19:08.638Z,98716.23
2022-09-30T23:22:13.572Z,98708.25
2022-09-30T23:25:19.420Z,98709.16
2022-09-30T23:28:25.359Z,98714.54
2022-09-30T23:31:32.182Z,98712.77
2022-09-30T23:34:38.346Z,98715.04
2022-09-30T23:37:44.393Z,98714.01
2022-09-30T23:40:51.199Z,98712.08
2022-09-30T23:43:57.092Z,98707.15
2022-09-30T23:47:21.645Z,98704.60
2022-09-30T23:50:27.631Z,98710.92
2022-09-30T23:53:34.535Z,98718.65
2022-09-30T23:56:41.529Z,98712.10
2022-09-30T23:59:47.400Z,98717.52
